Time;durP1;ratioP1;P1;durP2;ratioP2;P2;SDS_P1;SDS_P2;PMS_P1;PMS_P2;Temp;Humidity;BMP_temperature;BMP_pressure;BME280_temperature;BME280_humidity;BME280_pressure;Samples;Min_cycle;Max_cycle;Signal;HPM_P1;HPM_P2
2021/12/06 00:01:08;;;;;;;28.13;22.40;;;;;;;-0.49;100.00;100068.31;5119081;28;20432;-58
2021/12/06 00:03:48;;;;;;;36.53;23.38;;;;;;;-0.41;100.00;100058.75;5124140;28;20088;-58
2021/12/06 00:06:16;;;;;;;31.15;24.23;;;;;;;-0.34;100.00;100052.66;5127511;28;20043;-58
2021/12/06 00:08:42;;;;;;;30.23;23.65;;;;;;;-0.30;100.00;100054.31;5122982;28;20461;-58
2021/12/06 00:11:09;;;;;;;28.88;21.73;;;;;;;-0.31;100.00;100047.47;5115527;28;20100;-58
2021/12/06 00:13:39;;;;;;;29.20;21.80;;;;;;;-0.29;100.00;100048.28;5118529;28;20033;-58
2021/12/06 00:16:09;;;;;;;30.05;22.55;;;;;;;-0.25;100.00;100054.25;5121132;27;20430;-58
2021/12/06 00:18:35;;;;;;;28.27;21.13;;;;;;;-0.22;100.00;100052.50;5124301;27;20046;-58
2021/12/06 00:21:00;;;;;;;36.05;24.08;;;;;;;-0.25;100.00;100056.84;5124218;27;20036;-58
2021/12/06 00:23:27;;;;;;;27.90;21.70;;;;;;;-0.12;100.00;100069.59;5116841;28;20346;-58
2021/12/06 00:25:53;;;;;;;32.55;22.90;;;;;;;-0.09;100.00;100071.25;5109114;28;20024;-58
2021/12/06 00:28:18;;;;;;;29.35;22.13;;;;;;;-0.06;100.00;100078.97;5101864;28;20027;-58
2021/12/06 00:30:44;;;;;;;30.85;21.88;;;;;;;-0.01;100.00;100078.06;5119985;27;20128;-58
2021/12/06 00:33:09;;;;;;;27.70;21.55;;;;;;;0.05;100.00;100078.84;5116901;28;20028;-58
2021/12/06 00:35:34;;;;;;;29.50;21.15;;;;;;;0.05;100.00;100076.25;5129309;27;20023;-58
2021/12/06 00:38:00;;;;;;;26.58;21.25;;;;;;;0.03;100.00;100068.53;5117887;27;20027;-58
2021/12/06 00:40:33;;;;;;;29.42;21.13;;;;;;;0.00;100.00;100074.56;5130633;27;20029;-58
2021/12/06 00:42:58;;;;;;;31.33;22.85;;;;;;;-0.01;100.00;100082.38;5102729;27;20031;-58
2021/12/06 00:45:24;;;;;;;29.00;20.25;;;;;;;-0.22;100.00;100061.97;5116843;28;20478;-58
2021/12/06 00:47:50;;;;;;;30.58;22.70;;;;;;;0.02;100.00;100087.47;5130749;27;20039;-58
2021/12/06 00:50:17;;;;;;;27.33;22.27;;;;;;;0.06;100.00;100093.47;5112788;28;20030;-59
2021/12/06 00:52:43;;;;;;;30.42;23.17;;;;;;;-0.43;100.00;100010.59;5130204;27;21845;-58
2021/12/06 00:55:09;;;;;;;29.23;21.17;;;;;;;0.13;100.00;100111.47;5116309;28;20030;-58
2021/12/06 00:57:35;;;;;;;31.05;22.55;;;;;;;0.05;100.00;100094.31;5130824;27;20027;-58
2021/12/06 01:00:02;;;;;;;34.70;22.75;;;;;;;0.28;100.00;100115.53;5116702;28;20034;-58
2021/12/06 01:02:28;;;;;;;36.33;25.63;;;;;;;0.37;100.00;100115.44;5116379;28;20030;-58
2021/12/06 01:04:53;;;;;;;31.77;23.88;;;;;;;0.40;100.00;100120.56;5116150;28;20370;-58
2021/12/06 01:07:19;;;;;;;35.45;21.90;;;;;;;0.40;100.00;100120.56;5112128;28;20385;-58
2021/12/06 01:09:45;;;;;;;30.50;24.40;;;;;;;0.41;100.00;100123.13;5130449;27;20023;-58
2021/12/06 01:12:11;;;;;;;50.85;28.70;;;;;;;0.49;100.00;100125.59;5116345;28;20359;-58
2021/12/06 01:14:36;;;;;;;52.08;30.55;;;;;;;0.53;100.00;100119.53;5130501;27;20063;-59
2021/12/06 01:17:02;;;;;;;57.50;32.08;;;;;;;0.57;100.00;100131.53;5116144;28;20386;-58
2021/12/06 01:19:30;;;;;;;40.85;27.25;;;;;;;0.61;100.00;100140.91;5129208;27;20051;-59
2021/12/06 01:24:47;;;;;;;60.45;29.52;;;;;;;0.66;100.00;100151.22;5115911;28;20038;-58
2021/12/06 01:27:36;;;;;;;55.55;31.45;;;;;;;0.71;100.00;100155.44;5109143;27;20038;-58
2021/12/06 01:30:20;;;;;;;65.22;32.28;;;;;;;0.71;100.00;100158.00;5119604;27;20043;-58
2021/12/06 01:40:57;;;;;;;70.53;33.40;;;;;;;0.90;100.00;100169.81;5118806;27;20520;-58
2021/12/06 01:43:22;;;;;;;59.55;33.60;;;;;;;0.94;100.00;100165.44;5125584;27;20063;-58
2021/12/06 01:45:48;;;;;;;50.47;32.42;;;;;;;0.96;100.00;100164.53;5129371;27;20030;-59
2021/12/06 01:48:13;;;;;;;71.88;34.60;;;;;;;0.74;100.00;100126.97;5122157;27;20027;-58
2021/12/06 01:50:39;;;;;;;60.38;33.08;;;;;;;0.98;100.00;100160.19;5122906;27;20106;-59
2021/12/06 01:53:05;;;;;;;53.63;33.42;;;;;;;1.01;100.00;100167.06;5119308;27;20069;-58
2021/12/06 01:55:34;;;;;;;66.63;32.60;;;;;;;1.01;100.00;100157.56;5125080;27;20076;-58
2021/12/06 01:58:01;;;;;;;57.72;32.88;;;;;;;1.02;100.00;100169.63;5129738;27;20023;-58
2021/12/06 02:00:44;;;;;;;43.30;30.13;;;;;;;1.07;100.00;100181.63;5114832;28;20055;-59
2021/12/06 02:03:10;;;;;;;70.53;35.55;;;;;;;1.10;100.00;100184.16;5114520;28;20055;-58
2021/12/06 02:05:36;;;;;;;82.72;37.60;;;;;;;1.14;100.00;100191.00;5114849;28;20089;-59
2021/12/06 02:08:02;;;;;;;52.05;31.55;;;;;;;1.14;100.00;100191.00;5110507;27;20106;-58
2021/12/06 02:10:28;;;;;;;71.20;37.40;;;;;;;1.16;100.00;100187.50;5096644;28;20043;-58
2021/12/06 02:12:54;;;;;;;70.22;34.78;;;;;;;1.18;100.00;100195.28;5114856;28;20107;-58
2021/12/06 02:17:55;;;;;;;42.38;28.88;;;;;;;1.20;100.00;100194.34;5106327;27;20127;-58
2021/12/06 02:20:27;;;;;;;75.55;34.85;;;;;;;1.22;100.00;100194.31;5084851;27;20027;-58
2021/12/06 02:22:54;;;;;;;66.88;33.75;;;;;;;1.23;100.00;100198.63;5072082;27;20268;-56
2021/12/06 02:25:20;;;;;;;51.17;33.38;;;;;;;1.25;100.00;100212.41;5118394;27;20030;-56
2021/12/06 02:27:47;;;;;;;51.25;32.05;;;;;;;1.28;100.00;100213.22;5128870;27;20019;-56
2021/12/06 02:30:13;;;;;;;56.40;32.53;;;;;;;1.27;100.00;100216.69;5100605;28;20394;-58
2021/12/06 02:32:39;;;;;;;45.30;32.35;;;;;;;1.27;100.00;100206.31;5106307;27;20083;-59
2021/12/06 02:35:08;;;;;;;44.63;31.70;;;;;;;1.29;100.00;100219.22;5122901;27;20475;-59
2021/12/06 02:37:34;;;;;;;45.25;28.95;;;;;;;1.34;100.00;100222.59;5114046;28;20031;-58
2021/12/06 02:40:05;;;;;;;37.10;29.40;;;;;;;1.34;100.00;100217.44;5114413;28;20024;-58
2021/12/06 02:42:31;;;;;;;62.65;35.17;;;;;;;1.37;100.00;100222.56;5114134;28;20462;-58
2021/12/06 02:44:57;;;;;;;48.90;33.30;;;;;;;1.37;100.00;100222.56;5123669;27;20484;-59
2021/12/06 02:47:22;;;;;;;45.03;30.67;;;;;;;1.36;100.00;100220.84;5119224;27;20063;-56
2021/12/06 02:49:49;;;;;;;48.85;32.47;;;;;;;1.35;100.00;100226.91;5121708;27;20019;-58
2021/12/06 02:52:14;;;;;;;45.38;30.73;;;;;;;1.38;100.00;100226.88;5120842;27;20028;-59
2021/12/06 02:54:41;;;;;;;40.30;29.55;;;;;;;1.37;100.00;100225.16;5112943;28;20402;-59
2021/12/06 02:59:37;;;;;;;38.50;28.27;;;;;;;1.41;100.00;100239.75;5127847;27;20495;-57
2021/12/06 03:02:10;;;;;;;45.78;30.98;;;;;;;1.37;100.00;100232.91;5113940;28;20059;-57
2021/12/06 03:04:36;;;;;;;41.58;29.00;;;;;;;1.35;100.00;100234.69;5101045;27;20081;-57
2021/12/06 03:07:03;;;;;;;62.90;33.35;;;;;;;1.37;100.00;100238.94;5113779;28;20103;-57
2021/12/06 03:09:34;;;;;;;47.25;31.67;;;;;;;1.40;100.00;100250.97;5113365;28;20460;-57
2021/12/06 03:12:02;;;;;;;44.50;30.40;;;;;;;1.46;100.00;100254.31;5113458;28;20031;-57
2021/12/06 03:14:36;;;;;;;44.78;29.80;;;;;;;1.48;100.00;100256.91;5095635;28;20047;-57
2021/12/06 03:17:04;;;;;;;42.95;29.58;;;;;;;1.46;100.00;100248.28;5127918;27;20031;-57
2021/12/06 03:19:29;;;;;;;53.42;31.42;;;;;;;1.45;100.00;100257.78;5113803;28;20024;-56
2021/12/06 03:21:55;;;;;;;41.47;29.58;;;;;;;1.46;100.00;100251.72;5109076;28;20023;-57
2021/12/06 03:24:20;;;;;;;42.72;32.15;;;;;;;1.48;100.00;100252.59;5121706;27;20048;-57
2021/12/06 03:26:47;;;;;;;49.97;33.20;;;;;;;1.48;100.00;100252.59;5119903;27;20161;-57
2021/12/06 03:29:12;;;;;;;55.60;33.78;;;;;;;1.53;100.00;100265.44;5112966;28;20039;-57
2021/12/06 03:31:38;;;;;;;42.45;31.08;;;;;;;1.54;100.00;100256.78;5099225;28;20054;-57
2021/12/06 03:34:05;;;;;;;39.30;29.83;;;;;;;1.56;100.00;100262.78;5112963;28;20484;-57
2021/12/06 03:36:32;;;;;;;44.28;33.05;;;;;;;1.47;100.00;100242.22;5125674;27;20020;-57
2021/12/06 03:38:59;;;;;;;53.30;31.95;;;;;;;1.54;100.00;100256.78;5113250;28;20027;-57
2021/12/06 03:41:27;;;;;;;50.65;33.42;;;;;;;1.54;100.00;100251.63;5127217;27;20020;-57
2021/12/06 03:43:54;;;;;;;45.47;32.55;;;;;;;1.52;100.00;100249.03;5113177;28;20422;-57
2021/12/06 03:46:21;;;;;;;69.70;36.13;;;;;;;1.54;100.00;100251.63;5107947;28;20053;-57
2021/12/06 03:48:47;;;;;;;47.22;35.05;;;;;;;1.57;100.00;100254.16;5112303;28;20035;-57
2021/12/06 03:51:13;;;;;;;42.65;32.33;;;;;;;1.55;100.00;100250.75;5115445;27;20027;-57
2021/12/06 03:53:38;;;;;;;70.85;37.83;;;;;;;1.55;100.00;100250.75;5124110;27;20023;-57
2021/12/06 03:56:04;;;;;;;66.63;39.20;;;;;;;1.56;100.00;100255.03;5112173;28;20377;-57
2021/12/06 03:58:30;;;;;;;62.58;38.47;;;;;;;1.58;100.00;100258.47;5113199;28;20097;-57
2021/12/06 04:00:56;;;;;;;45.15;32.03;;;;;;;1.26;100.00;100208.91;5112825;28;20034;-57
2021/12/06 04:03:23;;;;;;;81.28;38.78;;;;;;;1.59;100.00;100262.75;5119793;28;20019;-57
2021/12/06 04:05:49;;;;;;;53.78;36.35;;;;;;;1.59;100.00;100270.50;5120783;28;20071;-57
2021/12/06 04:08:14;;;;;;;72.35;36.03;;;;;;;1.55;100.00;100263.69;5126989;28;20077;-57
2021/12/06 04:10:42;;;;;;;59.15;39.17;;;;;;;1.55;100.00;100274.03;5123728;28;20708;-57
2021/12/06 04:13:08;;;;;;;53.28;36.70;;;;;;;1.42;100.00;100251.81;5116126;28;20035;-57
2021/12/06 04:15:35;;;;;;;65.07;37.58;;;;;;;1.55;100.00;100280.06;5121550;28;20048;-57
2021/12/06 04:18:01;;;;;;;65.80;39.60;;;;;;;1.56;100.00;100275.72;5117818;28;20031;-57
2021/12/06 04:20:27;;;;;;;93.68;45.05;;;;;;;1.58;100.00;100273.13;5112692;28;20046;-57
2021/12/06 04:22:53;;;;;;;72.45;37.17;;;;;;;1.61;100.00;100267.91;5112774;28;20024;-58
2021/12/06 04:25:19;;;;;;;80.75;41.75;;;;;;;1.58;100.00;100279.19;5127010;28;20470;-57
2021/12/06 04:27:54;;;;;;;72.68;40.60;;;;;;;1.59;100.00;100286.03;5113051;28;20028;-57
2021/12/06 04:30:22;;;;;;;61.55;40.80;;;;;;;1.60;100.00;100287.75;5126280;28;20036;-57
2021/12/06 04:32:48;;;;;;;59.83;39.92;;;;;;;1.59;100.00;100295.56;5077262;28;20032;-57
2021/12/06 04:35:14;;;;;;;68.78;41.05;;;;;;;1.54;100.00;100301.66;5065301;28;20070;-57
2021/12/06 04:37:39;;;;;;;77.28;42.05;;;;;;;1.53;100.00;100306.84;5065569;28;20032;-57
2021/12/06 04:40:06;;;;;;;62.03;38.67;;;;;;;1.57;100.00;100308.53;5076141;28;20875;-57
2021/12/06 04:42:32;;;;;;;64.25;38.60;;;;;;;1.52;100.00;100306.00;5078014;28;20142;-57
2021/12/06 04:44:57;;;;;;;49.28;36.25;;;;;;;1.55;100.00;100308.53;5073519;28;20905;-57
2021/12/06 04:47:22;;;;;;;64.10;41.92;;;;;;;1.53;100.00;100307.72;5067452;28;20124;-57
2021/12/06 04:49:48;;;;;;;72.95;44.03;;;;;;;1.53;100.00;100304.25;5083302;28;20035;-57
2021/12/06 04:52:15;;;;;;;81.25;45.08;;;;;;;1.56;100.00;100311.97;5071783;28;20135;-57
2021/12/06 04:54:44;;;;;;;79.45;46.08;;;;;;;1.56;100.00;100296.44;5076745;28;20035;-58
2021/12/06 04:57:18;;;;;;;70.13;42.67;;;;;;;1.58;100.00;100305.06;5047346;28;20538;-57
2021/12/06 05:00:19;;;;;;;84.50;43.08;;;;;;;1.57;100.00;100303.34;5064092;28;20134;-57
2021/12/06 05:02:44;;;;;;;49.88;38.25;;;;;;;1.58;100.00;100310.25;5067220;28;20127;-57
2021/12/06 05:05:36;;;;;;;64.80;43.78;;;;;;;1.53;100.00;100302.53;5069990;27;20877;-57
2021/12/06 05:08:24;;;;;;;84.88;46.70;;;;;;;1.53;100.00;100312.03;5067886;28;20130;-57
2021/12/06 05:10:50;;;;;;;51.85;40.08;;;;;;;1.51;100.00;100314.66;5070059;27;20053;-58
2021/12/06 05:13:16;;;;;;;54.47;39.63;;;;;;;1.49;100.00;100315.53;5081043;27;20035;-57
2021/12/06 05:15:43;;;;;;;59.65;40.42;;;;;;;1.50;100.00;100322.44;5082945;27;20811;-57
2021/12/06 05:18:09;;;;;;;63.95;41.25;;;;;;;1.50;100.00;100325.88;5107751;28;20131;-57
2021/12/06 05:20:34;;;;;;;53.35;39.85;;;;;;;1.49;100.00;100325.88;5124540;27;20039;-57
2021/12/06 05:23:01;;;;;;;69.93;42.40;;;;;;;1.47;100.00;100328.53;5107284;27;20039;-57
2021/12/06 05:25:27;;;;;;;73.88;48.05;;;;;;;1.49;100.00;100331.06;5128149;27;20485;-57
2021/12/06 05:27:53;;;;;;;50.28;34.28;;;;;;;1.51;100.00;100330.19;5115835;28;20032;-57
2021/12/06 05:30:21;;;;;;;84.18;39.60;;;;;;;1.59;100.00;100331.81;5112242;28;20126;-57
2021/12/06 05:32:47;;;;;;;47.80;35.75;;;;;;;1.57;100.00;100337.00;5108962;27;20492;-57
2021/12/06 05:35:13;;;;;;;67.43;41.28;;;;;;;1.54;100.00;100334.47;5122568;27;20031;-57
2021/12/06 05:37:42;;;;;;;57.55;37.97;;;;;;;1.54;100.00;100339.63;5115673;28;20396;-57
2021/12/06 05:40:12;;;;;;;71.85;43.95;;;;;;;1.58;100.00;100356.84;5115077;28;20020;-57
2021/12/06 05:42:38;;;;;;;67.15;39.53;;;;;;;1.59;100.00;100363.72;5130060;27;20043;-57
2021/12/06 05:45:05;;;;;;;53.05;36.90;;;;;;;1.60;100.00;100365.44;5115456;28;20043;-57
2021/12/06 05:47:30;;;;;;;82.55;40.83;;;;;;;1.59;100.00;100362.88;5116119;27;20031;-57
2021/12/06 05:49:55;;;;;;;46.00;35.65;;;;;;;1.60;100.00;100365.44;5102024;28;20516;-57
2021/12/06 05:52:21;;;;;;;65.60;40.15;;;;;;;1.60;100.00;100360.25;5115443;28;20107;-56
2021/12/06 05:54:46;;;;;;;88.35;46.03;;;;;;;1.62;100.00;100357.66;5115110;28;20480;-57
2021/12/06 05:57:12;;;;;;;84.80;44.65;;;;;;;1.63;100.00;100355.03;5126392;27;20355;-57
2021/12/06 05:59:39;;;;;;;87.10;45.15;;;;;;;1.64;100.00;100355.88;5118453;27;20036;-57
2021/12/06 06:02:06;;;;;;;66.72;42.42;;;;;;;1.62;100.00;100353.34;5122272;27;20102;-57
2021/12/06 06:04:32;;;;;;;83.28;42.22;;;;;;;1.61;100.00;100343.00;5121984;27;20027;-57
2021/12/06 06:06:58;;;;;;;93.93;47.22;;;;;;;1.61;100.00;100341.25;5115158;28;20019;-57
2021/12/06 06:09:23;;;;;;;98.53;44.47;;;;;;;1.59;100.00;100343.00;5115162;28;20020;-57
2021/12/06 06:11:48;;;;;;;52.83;36.92;;;;;;;1.60;100.00;100344.72;5116279;27;20076;-57
2021/12/06 06:14:15;;;;;;;135.35;50.95;;;;;;;1.59;100.00;100343.00;5127278;27;20067;-57
2021/12/06 06:16:48;;;;;;;90.38;45.60;;;;;;;1.57;100.00;100355.13;5115264;28;20118;-56
2021/12/06 06:19:16;;;;;;;95.13;40.33;;;;;;;1.54;100.00;100353.44;5100939;28;20036;-57
2021/12/06 06:21:41;;;;;;;75.57;41.60;;;;;;;1.46;100.00;100357.00;5114602;28;20039;-57
2021/12/06 06:24:07;;;;;;;117.70;50.08;;;;;;;1.43;100.00;100368.25;5119195;27;20019;-57
2021/12/06 06:26:32;;;;;;;108.90;42.97;;;;;;;1.44;100.00;100369.97;5124225;27;20474;-57
2021/12/06 06:28:58;;;;;;;68.57;37.22;;;;;;;1.44;100.00;100375.16;5117129;27;20035;-57
2021/12/06 06:31:23;;;;;;;118.40;45.83;;;;;;;1.41;100.00;100366.56;5115486;27;20031;-57
2021/12/06 06:33:48;;;;;;;99.78;40.33;;;;;;;1.36;100.00;100370.94;5109536;28;20028;-57
2021/12/06 06:36:14;;;;;;;103.68;41.65;;;;;;;1.28;100.00;100372.78;5122008;27;20374;-57
2021/12/06 06:38:40;;;;;;;85.95;36.28;;;;;;;1.25;100.00;100365.91;5121032;27;20019;-57
2021/12/06 06:41:06;;;;;;;122.95;41.25;;;;;;;1.22;100.00;100368.53;5128919;27;20035;-57
2021/12/06 06:43:31;;;;;;;189.15;47.72;;;;;;;1.24;100.00;100373.72;5114120;28;20027;-56
2021/12/06 06:45:56;;;;;;;60.63;34.00;;;;;;;1.20;100.00;100374.63;5128544;27;20102;-56
2021/12/06 06:48:22;;;;;;;108.95;41.13;;;;;;;1.20;100.00;100380.66;5095784;28;20034;-57
2021/12/06 06:50:47;;;;;;;85.28;35.35;;;;;;;1.21;100.00;100381.50;5115306;27;20032;-57
2021/12/06 06:53:13;;;;;;;83.32;36.67;;;;;;;1.14;100.00;100385.91;5126754;27;20024;-57
2021/12/06 06:55:38;;;;;;;83.68;38.75;;;;;;;1.10;100.00;100385.94;5105576;28;20099;-57
2021/12/06 06:58:04;;;;;;;115.50;47.83;;;;;;;1.11;100.00;100390.25;5093561;28;20034;-57
2021/12/06 07:00:33;;;;;;;78.75;39.85;;;;;;;1.13;100.00;100393.69;5102725;28;20028;-57
2021/12/06 07:03:00;;;;;;;64.15;35.97;;;;;;;1.15;100.00;100391.94;5112125;27;20024;-57
2021/12/06 07:05:26;;;;;;;105.85;40.03;;;;;;;1.14;100.00;100392.81;5122430;27;20023;-56
2021/12/06 07:07:52;;;;;;;57.00;36.75;;;;;;;1.10;100.00;100388.53;5124789;27;20038;-57
2021/12/06 07:10:17;;;;;;;174.32;48.55;;;;;;;0.95;100.00;100371.47;5119599;27;20031;-57
2021/12/06 07:12:48;;;;;;;84.90;38.13;;;;;;;1.06;100.00;100384.28;5124494;27;20513;-57
2021/12/06 07:15:23;;;;;;;108.85;42.22;;;;;;;1.06;100.00;100392.03;5113394;28;20024;-57
2021/12/06 07:17:51;;;;;;;179.68;47.22;;;;;;;1.06;100.00;100392.03;5114077;28;20032;-57
2021/12/06 07:20:16;;;;;;;84.90;38.45;;;;;;;1.02;100.00;100398.97;5112974;28;20088;-57
2021/12/06 07:22:42;;;;;;;77.85;36.88;;;;;;;0.97;100.00;100411.97;5107156;28;20024;-57
2021/12/06 07:25:09;;;;;;;56.95;35.47;;;;;;;0.96;100.00;100418.00;5105018;28;20028;-57
2021/12/06 07:27:35;;;;;;;74.78;38.63;;;;;;;0.92;100.00;100421.50;5106587;28;20019;-57
2021/12/06 07:30:01;;;;;;;84.43;38.08;;;;;;;0.88;100.00;100419.81;5105255;28;20088;-57
2021/12/06 07:32:26;;;;;;;101.43;42.88;;;;;;;0.87;100.00;100423.28;5052524;27;20559;-56
2021/12/06 07:34:52;;;;;;;72.22;38.05;;;;;;;0.88;100.00;100424.16;5075933;27;20028;-57
2021/12/06 07:37:18;;;;;;;121.72;42.55;;;;;;;0.89;100.00;100416.38;5065504;28;20038;-57
2021/12/06 07:39:44;;;;;;;135.82;47.20;;;;;;;0.73;100.00;100399.31;5065112;28;20036;-57
2021/12/06 07:42:12;;;;;;;51.65;33.53;;;;;;;0.83;100.00;100426.78;5065733;28;20027;-57
2021/12/06 07:44:42;;;;;;;95.70;40.65;;;;;;;0.83;100.00;100426.78;5066187;27;20030;-56
2021/12/06 07:47:09;;;;;;;72.25;41.33;;;;;;;0.87;100.00;100432.78;5065750;28;20028;-57
2021/12/06 07:49:35;;;;;;;52.13;36.88;;;;;;;0.90;100.00;100435.31;5053066;28;20404;-57
2021/12/06 07:52:00;;;;;;;77.68;38.95;;;;;;;0.92;100.00;100439.59;5072500;27;20027;-57
2021/12/06 07:54:25;;;;;;;79.20;39.72;;;;;;;0.95;100.00;100442.16;5076222;27;20062;-57
2021/12/06 07:56:51;;;;;;;73.35;36.58;;;;;;;0.98;100.00;100436.13;5065676;28;20031;-57
2021/12/06 07:59:16;;;;;;;140.57;43.75;;;;;;;1.00;100.00;100442.13;5065991;28;20030;-57
2021/12/06 08:01:42;;;;;;;70.80;36.30;;;;;;;0.80;100.00;100402.69;5064694;28;20955;-57
2021/12/06 08:04:07;;;;;;;60.50;36.35;;;;;;;0.98;100.00;100436.94;5065985;28;20027;-57
2021/12/06 08:06:33;;;;;;;69.63;34.65;;;;;;;0.99;100.00;100438.66;5083347;28;20035;-57
2021/12/06 08:08:59;;;;;;;93.97;38.40;;;;;;;1.02;100.00;100442.94;5073621;28;20537;-57
2021/12/06 08:11:25;;;;;;;96.13;44.60;;;;;;;1.03;100.00;100440.34;5065051;28;20027;-57
2021/12/06 08:13:54;;;;;;;119.50;40.38;;;;;;;1.05;100.00;100442.91;5065124;28;20031;-57
2021/12/06 08:16:22;;;;;;;55.00;35.45;;;;;;;1.03;100.00;100440.34;5064645;28;20024;-57
2021/12/06 08:18:47;;;;;;;78.97;35.72;;;;;;;0.99;100.00;100438.66;5064421;28;20069;-57
2021/12/06 08:21:15;;;;;;;58.83;34.85;;;;;;;1.04;100.00;100446.38;5065626;28;20896;-57
2021/12/06 08:23:41;;;;;;;65.13;35.20;;;;;;;0.92;100.00;100421.50;5053093;28;20028;-57
2021/12/06 08:26:09;;;;;;;56.00;29.25;;;;;;;0.99;100.00;100430.91;5075880;28;20027;-57
2021/12/06 08:28:35;;;;;;;55.15;30.15;;;;;;;0.94;100.00;100419.78;5076028;28;20023;-57
2021/12/06 08:31:03;;;;;;;47.83;30.42;;;;;;;1.03;100.00;100427.41;5066557;28;20090;-57
2021/12/06 08:33:29;;;;;;;54.60;29.65;;;;;;;1.09;100.00;100423.91;5048577;28;20078;-57
2021/12/06 08:35:55;;;;;;;49.50;31.95;;;;;;;1.11;100.00;100423.91;5067022;28;20030;-56
2021/12/06 08:38:25;;;;;;;46.45;30.15;;;;;;;1.10;100.00;100430.78;5069782;28;20051;-57
2021/12/06 08:40:52;;;;;;;56.78;32.60;;;;;;;1.12;100.00;100433.34;5071021;28;20035;-57
2021/12/06 08:43:19;;;;;;;60.45;30.63;;;;;;;1.15;100.00;100436.75;5053604;28;20906;-57
2021/12/06 08:45:48;;;;;;;53.85;29.55;;;;;;;1.18;100.00;100428.13;5070236;28;20024;-57
2021/12/06 08:48:13;;;;;;;42.90;28.75;;;;;;;1.07;100.00;100398.94;5070597;28;20055;-57
2021/12/06 08:50:39;;;;;;;52.33;31.27;;;;;;;1.15;100.00;100402.28;5069579;28;20019;-57
2021/12/06 08:53:04;;;;;;;51.72;30.85;;;;;;;1.30;100.00;100425.38;5068623;28;20879;-57
2021/12/06 08:55:30;;;;;;;54.05;31.75;;;;;;;1.32;100.00;100428.81;5041618;28;20028;-57
2021/12/06 08:57:56;;;;;;;51.70;31.85;;;;;;;1.36;100.00;100433.91;5066679;28;20028;-57
2021/12/06 09:00:26;;;;;;;77.80;38.10;;;;;;;1.43;100.00;100440.75;5071507;27;20134;-56
2021/12/06 09:02:52;;;;;;;54.72;32.38;;;;;;;1.19;100.00;100396.19;5081464;27;20138;-56
2021/12/06 09:05:18;;;;;;;51.20;32.20;;;;;;;1.32;100.00;100414.13;5070951;27;20024;-56
2021/12/06 09:07:44;;;;;;;57.30;32.83;;;;;;;1.21;100.00;100386.69;5072144;27;20134;-56
2021/12/06 09:10:10;;;;;;;54.75;35.03;;;;;;;1.68;100.00;100458.56;5080563;27;20020;-56
2021/12/06 09:12:36;;;;;;;57.47;37.00;;;;;;;1.69;100.00;100461.09;5071599;28;20027;-56
2021/12/06 09:15:06;;;;;;;67.57;37.28;;;;;;;1.55;100.00;100429.38;5070923;28;20154;-57
2021/12/06 09:17:31;;;;;;;75.10;38.38;;;;;;;1.66;100.00;100443.03;5069620;28;20028;-56
2021/12/06 09:19:57;;;;;;;69.63;38.85;;;;;;;1.81;100.00;100468.72;5068741;28;20030;-57
2021/12/06 09:22:22;;;;;;;64.15;40.33;;;;;;;1.82;100.00;100460.09;5072240;27;20146;-56
2021/12/06 09:24:49;;;;;;;82.55;45.55;;;;;;;1.88;100.00;100466.91;5057554;28;20079;-56
2021/12/06 09:27:15;;;;;;;76.95;42.75;;;;;;;1.91;100.00;100475.50;5058019;28;20042;-57
2021/12/06 09:29:41;;;;;;;72.72;39.88;;;;;;;1.68;100.00;100430.94;5082324;27;20097;-56
2021/12/06 09:32:09;;;;;;;93.85;43.35;;;;;;;1.91;100.00;100464.28;5048592;28;20139;-56
2021/12/06 09:34:38;;;;;;;66.22;35.85;;;;;;;1.86;100.00;100461.72;5067576;28;20102;-56
2021/12/06 09:37:04;;;;;;;64.82;39.15;;;;;;;1.94;100.00;100470.25;5069800;28;20209;-56
2021/12/06 09:39:29;;;;;;;65.20;39.40;;;;;;;2.00;100.00;100457.22;5080075;27;20032;-57
2021/12/06 09:41:55;;;;;;;75.07;40.08;;;;;;;2.02;100.00;100467.56;5052604;28;20030;-57
2021/12/06 09:44:20;;;;;;;65.90;39.60;;;;;;;2.00;100.00;100457.22;5071175;27;20059;-57
2021/12/06 09:46:46;;;;;;;69.68;40.65;;;;;;;2.01;100.00;100465.84;5080106;27;20082;-57
2021/12/06 09:49:15;;;;;;;80.10;42.33;;;;;;;2.04;100.00;100461.47;5066715;28;20825;-57
2021/12/06 09:51:44;;;;;;;86.85;42.58;;;;;;;2.11;100.00;100461.38;5072180;27;20023;-58
2021/12/06 09:54:11;;;;;;;70.05;38.40;;;;;;;2.16;100.00;100460.47;5075785;27;20039;-57
2021/12/06 09:56:39;;;;;;;75.15;41.47;;;;;;;2.23;100.00;100448.25;5078409;27;20191;-57
2021/12/06 09:59:09;;;;;;;83.43;44.72;;;;;;;2.27;100.00;100449.91;5068759;27;20086;-57
2021/12/06 10:01:39;;;;;;;73.82;42.40;;;;;;;2.31;100.00;100456.75;5068015;27;20171;-57
2021/12/06 10:04:07;;;;;;;81.93;45.70;;;;;;;2.35;100.00;100459.28;5072991;27;20027;-57
2021/12/06 10:06:33;;;;;;;78.57;45.15;;;;;;;2.37;100.00;100461.84;5082136;27;20947;-57
2021/12/06 10:08:59;;;;;;;68.18;42.92;;;;;;;2.42;100.00;100457.44;5073369;27;20020;-58
2021/12/06 10:11:26;;;;;;;78.10;47.17;;;;;;;2.35;100.00;100454.09;5078725;27;20030;-57
2021/12/06 10:13:52;;;;;;;63.35;41.55;;;;;;;2.34;100.00;100456.69;5068672;27;20441;-57
2021/12/06 10:16:19;;;;;;;80.28;44.20;;;;;;;2.37;100.00;100451.47;5068441;28;20024;-58
2021/12/06 10:18:45;;;;;;;86.75;46.15;;;;;;;2.29;100.00;100446.44;5068103;28;20142;-58
2021/12/06 10:21:12;;;;;;;78.63;47.05;;;;;;;2.29;100.00;100459.38;5066978;28;20142;-57
2021/12/06 10:23:38;;;;;;;68.90;43.42;;;;;;;2.03;100.00;100420.91;5068065;28;20310;-57
2021/12/06 10:26:08;;;;;;;68.88;43.88;;;;;;;2.27;100.00;100453.34;5055538;28;20116;-58
2021/12/06 10:28:35;;;;;;;71.18;42.17;;;;;;;2.25;100.00;100449.09;5059100;28;20145;-58
2021/12/06 10:31:05;;;;;;;62.50;37.25;;;;;;;2.23;100.00;100456.88;5057748;28;20034;-58
2021/12/06 10:33:40;;;;;;;58.92;38.38;;;;;;;2.06;100.00;100428.63;5058160;28;20050;-58
2021/12/06 10:36:08;;;;;;;60.95;36.78;;;;;;;2.13;100.00;100444.94;5063442;28;20154;-58
2021/12/06 10:38:37;;;;;;;61.33;34.60;;;;;;;2.12;100.00;100427.69;5056601;28;20093;-58
2021/12/06 10:41:15;;;;;;;49.47;30.50;;;;;;;2.17;100.00;100417.22;5066331;27;20091;-58
2021/12/06 10:43:49;;;;;;;52.95;30.45;;;;;;;2.23;100.00;100414.56;5061324;28;20034;-58
2021/12/06 10:46:16;;;;;;;47.97;30.45;;;;;;;2.32;100.00;100409.22;5080456;27;20034;-57
2021/12/06 10:48:41;;;;;;;50.05;31.45;;;;;;;2.36;100.00;100403.97;5065093;28;20457;-58
2021/12/06 10:51:16;;;;;;;45.50;28.98;;;;;;;2.36;100.00;100396.19;5056758;28;20043;-58
2021/12/06 10:53:58;;;;;;;43.85;29.40;;;;;;;2.40;100.00;100386.63;5077431;27;20107;-58
2021/12/06 10:56:33;;;;;;;48.92;27.77;;;;;;;2.54;100.00;100389.81;5068273;27;20088;-57
2021/12/06 10:59:03;;;;;;;46.53;28.65;;;;;;;2.64;100.00;100386.16;5073819;27;20023;-58
2021/12/06 11:01:31;;;;;;;43.40;29.50;;;;;;;2.74;100.00;100377.34;5070229;27;20027;-57
2021/12/06 11:03:57;;;;;;;50.67;29.33;;;;;;;2.91;100.00;100370.09;5072243;27;20077;-58
2021/12/06 11:06:31;;;;;;;45.75;29.33;;;;;;;3.16;100.00;100359.22;5072484;27;20143;-58
2021/12/06 11:08:58;;;;;;;53.30;30.33;;;;;;;3.44;100.00;100355.16;5052021;27;20563;-58
2021/12/06 11:11:31;;;;;;;50.47;28.60;;;;;;;3.64;100.00;100355.56;5065472;28;20027;-58
2021/12/06 11:14:03;;;;;;;36.85;25.13;;;;;;;3.68;100.00;100354.59;5065319;28;20143;-58
2021/12/06 11:16:31;;;;;;;33.10;23.30;;;;;;;3.71;100.00;100356.28;5066447;28;20028;-58
2021/12/06 11:19:03;;;;;;;34.42;23.70;;;;;;;3.12;100.00;100261.53;5065587;28;20146;-58
2021/12/06 11:21:42;;;;;;;30.52;22.77;;;;;;;3.47;100.00;100323.91;5073749;27;20023;-58
2021/12/06 11:24:17;;;;;;;29.05;19.73;;;;;;;3.51;100.00;100343.75;5054407;27;20899;-58
2021/12/06 11:27:04;;;;;;;31.33;21.95;;;;;;;3.49;100.00;100342.91;5066456;28;20990;-58